sensor_id;sensor_type;location;lat;lon;timestamp;pressure;altitude;pressure_sealevel;temperature;humidity
65131;BME280;51709;54.912;8.316;2022-12-18T00:01:18;102457.19;;;1.98;82.68
65131;BME280;51709;54.912;8.316;2022-12-18T00:06:39;102466.78;;;2.05;82.69
65131;BME280;51709;54.912;8.316;2022-12-18T00:12:01;102465.94;;;2.06;82.74
65131;BME280;51709;54.912;8.316;2022-12-18T00:17:35;102439.28;;;2.14;82.45
65131;BME280;51709;54.912;8.316;2022-12-18T00:22:56;102473.75;;;2.11;82.47
65131;BME280;51709;54.912;8.316;2022-12-18T00:28:17;102473.81;;;2.12;82.44
65131;BME280;51709;54.912;8.316;2022-12-18T00:33:37;102467.06;;;2.13;82.51
65131;BME280;51709;54.912;8.316;2022-12-18T00:39:04;102478.22;;;2.17;82.54
65131;BME280;51709;54.912;8.316;2022-12-18T00:44:24;102485.84;;;2.18;82.49
65131;BME280;51709;54.912;8.316;2022-12-18T00:49:45;102486.59;;;2.15;82.53
65131;BME280;51709;54.912;8.316;2022-12-18T00:55:06;102481.41;;;2.12;82.54
65131;BME280;51709;54.912;8.316;2022-12-18T01:00:27;102479.00;;;2.15;82.65
65131;BME280;51709;54.912;8.316;2022-12-18T01:05:47;102472.31;;;2.18;82.50
65131;BME280;51709;54.912;8.316;2022-12-18T01:11:11;102480.03;;;2.21;82.69
65131;BME280;51709;54.912;8.316;2022-12-18T01:16:32;102481.03;;;2.24;82.65
65131;BME280;51709;54.912;8.316;2022-12-18T01:21:52;102487.09;;;2.28;82.45
65131;BME280;51709;54.912;8.316;2022-12-18T01:27:13;102482.25;;;2.34;82.46
65131;BME280;51709;54.912;8.316;2022-12-18T01:32:34;102495.06;;;2.37;82.42
65131;BME280;51709;54.912;8.316;2022-12-18T01:37:55;102495.38;;;2.45;82.20
65131;BME280;51709;54.912;8.316;2022-12-18T01:43:16;102491.16;;;2.45;82.60
65131;BME280;51709;54.912;8.316;2022-12-18T01:48:37;102499.44;;;2.41;82.53
65131;BME280;51709;54.912;8.316;2022-12-18T01:53:59;102515.38;;;2.39;82.74
65131;BME280;51709;54.912;8.316;2022-12-18T01:59:20;102508.41;;;2.33;82.82
65131;BME280;51709;54.912;8.316;2022-12-18T02:04:40;102521.00;;;2.31;82.80
65131;BME280;51709;54.912;8.316;2022-12-18T02:10:23;102513.72;;;2.39;82.58
65131;BME280;51709;54.912;8.316;2022-12-18T02:21:34;102519.81;;;2.44;82.42
65131;BME280;51709;54.912;8.316;2022-12-18T02:27:01;102508.22;;;2.50;82.28
65131;BME280;51709;54.912;8.316;2022-12-18T02:32:34;102504.09;;;2.52;82.33
65131;BME280;51709;54.912;8.316;2022-12-18T02:37:57;102519.47;;;2.56;82.19
65131;BME280;51709;54.912;8.316;2022-12-18T02:43:19;102523.66;;;2.56;82.15
65131;BME280;51709;54.912;8.316;2022-12-18T02:48:42;102516.94;;;2.56;82.11
65131;BME280;51709;54.912;8.316;2022-12-18T02:54:19;102517.59;;;2.52;82.16
65131;BME280;51709;54.912;8.316;2022-12-18T02:59:56;102504.97;;;2.54;82.08
65131;BME280;51709;54.912;8.316;2022-12-18T03:05:31;102505.84;;;2.54;82.00
65131;BME280;51709;54.912;8.316;2022-12-18T03:11:05;102508.53;;;2.57;81.76
65131;BME280;51709;54.912;8.316;2022-12-18T03:16:29;102510.25;;;2.58;81.72
65131;BME280;51709;54.912;8.316;2022-12-18T03:21:54;102516.97;;;2.58;81.63
65131;BME280;51709;54.912;8.316;2022-12-18T03:27:20;102509.38;;;2.58;81.42
65131;BME280;51709;54.912;8.316;2022-12-18T03:33:07;102517.84;;;2.58;81.15
65131;BME280;51709;54.912;8.316;2022-12-18T03:47:20;102552.63;;;2.62;80.66
65131;BME280;51709;54.912;8.316;2022-12-18T03:52:55;102555.25;;;2.64;80.47
65131;BME280;51709;54.912;8.316;2022-12-18T03:58:20;102549.31;;;2.64;80.55
65131;BME280;51709;54.912;8.316;2022-12-18T04:04:09;102560.25;;;2.62;80.48
65131;BME280;51709;54.912;8.316;2022-12-18T04:09:34;102541.53;;;2.59;80.47
65131;BME280;51709;54.912;8.316;2022-12-18T04:14:56;102540.59;;;2.57;80.34
65131;BME280;51709;54.912;8.316;2022-12-18T04:20:18;102546.41;;;2.54;80.43
65131;BME280;51709;54.912;8.316;2022-12-18T04:25:39;102551.34;;;2.51;80.38
65131;BME280;51709;54.912;8.316;2022-12-18T04:31:04;102550.38;;;2.47;80.37
65131;BME280;51709;54.912;8.316;2022-12-18T04:36:25;102547.56;;;2.41;80.49
65131;BME280;51709;54.912;8.316;2022-12-18T04:41:46;102541.50;;;2.38;80.57
65131;BME280;51709;54.912;8.316;2022-12-18T04:47:07;102557.41;;;2.34;80.68
65131;BME280;51709;54.912;8.316;2022-12-18T04:52:27;102563.16;;;2.29;80.75
65131;BME280;51709;54.912;8.316;2022-12-18T04:57:49;102565.56;;;2.26;80.83
65131;BME280;51709;54.912;8.316;2022-12-18T05:03:09;102564.63;;;2.24;80.75
65131;BME280;51709;54.912;8.316;2022-12-18T05:08:30;102555.38;;;2.25;80.55
65131;BME280;51709;54.912;8.316;2022-12-18T05:13:51;102551.91;;;2.23;80.56
65131;BME280;51709;54.912;8.316;2022-12-18T05:19:12;102544.06;;;2.17;80.49
65131;BME280;51709;54.912;8.316;2022-12-18T05:24:33;102567.66;;;2.15;80.29
65131;BME280;51709;54.912;8.316;2022-12-18T05:29:53;102594.44;;;2.10;80.12
65131;BME280;51709;54.912;8.316;2022-12-18T05:35:16;102574.13;;;2.09;80.07
65131;BME280;51709;54.912;8.316;2022-12-18T05:40:37;102579.91;;;2.06;79.87
65131;BME280;51709;54.912;8.316;2022-12-18T05:46:03;102600.06;;;2.03;79.81
65131;BME280;51709;54.912;8.316;2022-12-18T05:51:24;102598.97;;;1.98;79.90
65131;BME280;51709;54.912;8.316;2022-12-18T05:56:44;102599.66;;;1.94;79.70
65131;BME280;51709;54.912;8.316;2022-12-18T06:02:08;102609.50;;;1.88;79.98
65131;BME280;51709;54.912;8.316;2022-12-18T06:07:28;102616.31;;;1.89;80.08
65131;BME280;51709;54.912;8.316;2022-12-18T06:12:49;102620.44;;;1.87;79.89
65131;BME280;51709;54.912;8.316;2022-12-18T06:18:10;102637.22;;;1.84;80.13
65131;BME280;51709;54.912;8.316;2022-12-18T06:23:30;102631.22;;;1.82;80.15
65131;BME280;51709;54.912;8.316;2022-12-18T06:28:51;102616.72;;;1.78;80.38
65131;BME280;51709;54.912;8.316;2022-12-18T06:34:11;102636.06;;;1.78;80.29
65131;BME280;51709;54.912;8.316;2022-12-18T06:39:32;102638.59;;;1.78;80.43
65131;BME280;51709;54.912;8.316;2022-12-18T06:44:53;102655.47;;;1.77;80.58
65131;BME280;51709;54.912;8.316;2022-12-18T06:50:14;102657.13;;;1.77;80.64
65131;BME280;51709;54.912;8.316;2022-12-18T06:55:35;102675.78;;;1.79;80.57
65131;BME280;51709;54.912;8.316;2022-12-18T07:01:03;102675.66;;;1.76;80.67
65131;BME280;51709;54.912;8.316;2022-12-18T07:06:25;102675.78;;;1.79;80.58
65131;BME280;51709;54.912;8.316;2022-12-18T07:11:46;102691.91;;;1.81;80.52
65131;BME280;51709;54.912;8.316;2022-12-18T07:17:06;102683.38;;;1.79;80.57
65131;BME280;51709;54.912;8.316;2022-12-18T07:22:27;102722.28;;;1.81;80.57
65131;BME280;51709;54.912;8.316;2022-12-18T07:27:49;102701.09;;;1.79;80.69
65131;BME280;51709;54.912;8.316;2022-12-18T07:33:10;102712.97;;;1.80;80.84
65131;BME280;51709;54.912;8.316;2022-12-18T07:38:31;102714.50;;;1.76;80.75
65131;BME280;51709;54.912;8.316;2022-12-18T07:43:51;102711.91;;;1.75;80.94
65131;BME280;51709;54.912;8.316;2022-12-18T07:49:12;102720.13;;;1.71;80.86
65131;BME280;51709;54.912;8.316;2022-12-18T07:54:33;102699.91;;;1.71;80.79
65131;BME280;51709;54.912;8.316;2022-12-18T07:59:57;102698.16;;;1.69;81.22
65131;BME280;51709;54.912;8.316;2022-12-18T08:05:21;102690.50;;;1.68;81.12
65131;BME280;51709;54.912;8.316;2022-12-18T08:10:46;102714.13;;;1.68;80.98
65131;BME280;51709;54.912;8.316;2022-12-18T08:16:07;102700.69;;;1.69;80.95
65131;BME280;51709;54.912;8.316;2022-12-18T08:21:29;102708.34;;;1.71;80.80
65131;BME280;51709;54.912;8.316;2022-12-18T08:26:50;102704.31;;;1.75;80.95
65131;BME280;51709;54.912;8.316;2022-12-18T08:32:31;102710.53;;;1.81;80.75
65131;BME280;51709;54.912;8.316;2022-12-18T08:37:54;102713.13;;;1.83;80.49
65131;BME280;51709;54.912;8.316;2022-12-18T08:43:14;102723.44;;;1.88;80.58
65131;BME280;51709;54.912;8.316;2022-12-18T08:48:54;102722.78;;;1.92;80.41
65131;BME280;51709;54.912;8.316;2022-12-18T08:54:19;102717.00;;;1.94;80.40
65131;BME280;51709;54.912;8.316;2022-12-18T08:59:48;102721.25;;;1.95;80.04
65131;BME280;51709;54.912;8.316;2022-12-18T09:05:11;102726.38;;;1.97;80.17
65131;BME280;51709;54.912;8.316;2022-12-18T09:10:31;102725.53;;;1.96;79.99
65131;BME280;51709;54.912;8.316;2022-12-18T09:15:53;102733.28;;;1.99;79.71
65131;BME280;51709;54.912;8.316;2022-12-18T09:21:17;102732.91;;;1.92;79.72
65131;BME280;51709;54.912;8.316;2022-12-18T09:26:37;102737.03;;;1.90;79.57
65131;BME280;51709;54.912;8.316;2022-12-18T09:31:59;102735.94;;;1.84;79.54
65131;BME280;51709;54.912;8.316;2022-12-18T09:37:20;102734.22;;;1.83;79.57
65131;BME280;51709;54.912;8.316;2022-12-18T09:42:46;102741.97;;;1.87;79.38
65131;BME280;51709;54.912;8.316;2022-12-18T09:48:20;102760.91;;;1.95;78.84
65131;BME280;51709;54.912;8.316;2022-12-18T09:53:47;102769.84;;;2.06;78.41
65131;BME280;51709;54.912;8.316;2022-12-18T09:59:31;102759.06;;;2.10;78.41
65131;BME280;51709;54.912;8.316;2022-12-18T10:10:27;102770.28;;;2.55;77.21
65131;BME280;51709;54.912;8.316;2022-12-18T10:16:24;102765.44;;;2.59;76.96
65131;BME280;51709;54.912;8.316;2022-12-18T10:27:36;102769.91;;;2.45;76.75
65131;BME280;51709;54.912;8.316;2022-12-18T10:33:00;102761.78;;;2.53;76.43
65131;BME280;51709;54.912;8.316;2022-12-18T10:38:27;102753.09;;;3.29;73.98
65131;BME280;51709;54.912;8.316;2022-12-18T10:44:18;102745.56;;;3.10;74.08
65131;BME280;51709;54.912;8.316;2022-12-18T10:49:46;102748.63;;;2.81;75.11
65131;BME280;51709;54.912;8.316;2022-12-18T10:55:16;102739.56;;;2.67;75.45
65131;BME280;51709;54.912;8.316;2022-12-18T11:00:37;102781.31;;;2.55;75.62
65131;BME280;51709;54.912;8.316;2022-12-18T11:06:05;102781.63;;;2.43;75.68
65131;BME280;51709;54.912;8.316;2022-12-18T11:11:26;102762.34;;;2.47;75.51
65131;BME280;51709;54.912;8.316;2022-12-18T11:16:48;102778.34;;;2.85;74.40
65131;BME280;51709;54.912;8.316;2022-12-18T11:22:32;102759.28;;;2.93;73.59
65131;BME280;51709;54.912;8.316;2022-12-18T11:27:56;102746.28;;;2.66;74.20
65131;BME280;51709;54.912;8.316;2022-12-18T11:33:21;102737.25;;;2.52;74.56
65131;BME280;51709;54.912;8.316;2022-12-18T11:38:42;102734.34;;;2.64;74.34
65131;BME280;51709;54.912;8.316;2022-12-18T11:44:07;102733.59;;;2.66;74.15
65131;BME280;51709;54.912;8.316;2022-12-18T11:49:34;102724.44;;;2.49;74.44
65131;BME280;51709;54.912;8.316;2022-12-18T11:55:00;102714.38;;;2.11;74.98
65131;BME280;51709;54.912;8.316;2022-12-18T12:00:22;102705.63;;;2.04;75.35
65131;BME280;51709;54.912;8.316;2022-12-18T12:05:57;102678.97;;;1.93;75.11
65131;BME280;51709;54.912;8.316;2022-12-18T12:16:57;102673.84;;;1.73;75.38
65131;BME280;51709;54.912;8.316;2022-12-18T12:22:37;102666.66;;;1.82;75.11
65131;BME280;51709;54.912;8.316;2022-12-18T12:33:59;102681.44;;;1.73;74.92
65131;BME280;51709;54.912;8.316;2022-12-18T12:39:27;102669.00;;;1.78;74.95
65131;BME280;51709;54.912;8.316;2022-12-18T12:44:55;102667.88;;;1.91;74.38
65131;BME280;51709;54.912;8.316;2022-12-18T12:50:19;102689.88;;;1.92;74.29
65131;BME280;51709;54.912;8.316;2022-12-18T12:55:42;102700.41;;;1.81;74.51
65131;BME280;51709;54.912;8.316;2022-12-18T13:01:16;102703.16;;;1.68;74.68
65131;BME280;51709;54.912;8.316;2022-12-18T13:06:51;102695.00;;;1.37;75.37
65131;BME280;51709;54.912;8.316;2022-12-18T13:12:13;102708.59;;;1.21;75.74
65131;BME280;51709;54.912;8.316;2022-12-18T13:18:26;102699.47;;;1.07;75.84
65131;BME280;51709;54.912;8.316;2022-12-18T13:23:48;102701.47;;;0.96;75.88
65131;BME280;51709;54.912;8.316;2022-12-18T13:29:08;102687.88;;;0.76;76.00
65131;BME280;51709;54.912;8.316;2022-12-18T13:34:30;102679.19;;;0.54;76.48
65131;BME280;51709;54.912;8.316;2022-12-18T13:39:52;102667.00;;;0.29;76.65
65131;BME280;51709;54.912;8.316;2022-12-18T13:45:40;102659.75;;;0.19;76.72
65131;BME280;51709;54.912;8.316;2022-12-18T13:51:05;102667.53;;;0.07;77.10
65131;BME280;51709;54.912;8.316;2022-12-18T13:56:31;102682.44;;;0.02;76.80
65131;BME280;51709;54.912;8.316;2022-12-18T14:01:57;102667.59;;;-0.08;76.93
65131;BME280;51709;54.912;8.316;2022-12-18T14:07:27;102664.84;;;-0.13;76.81
65131;BME280;51709;54.912;8.316;2022-12-18T14:12:54;102667.91;;;-0.19;76.86
65131;BME280;51709;54.912;8.316;2022-12-18T14:29:30;102641.72;;;-0.69;77.23
65131;BME280;51709;54.912;8.316;2022-12-18T14:34:52;102639.19;;;-0.69;77.14
65131;BME280;51709;54.912;8.316;2022-12-18T14:40:16;102639.09;;;-0.70;77.01
65131;BME280;51709;54.912;8.316;2022-12-18T14:51:05;102620.91;;;-0.96;77.32
65131;BME280;51709;54.912;8.316;2022-12-18T14:56:47;102617.53;;;-1.12;77.43
65131;BME280;51709;54.912;8.316;2022-12-18T15:02:18;102611.19;;;-1.20;77.32
65131;BME280;51709;54.912;8.316;2022-12-18T15:07:42;102611.53;;;-1.29;77.20
65131;BME280;51709;54.912;8.316;2022-12-18T15:18:30;102601.81;;;-1.52;77.26
65131;BME280;51709;54.912;8.316;2022-12-18T15:23:55;102598.50;;;-1.66;77.55
65131;BME280;51709;54.912;8.316;2022-12-18T15:29:21;102582.75;;;-1.77;77.35
65131;BME280;51709;54.912;8.316;2022-12-18T15:34:42;102588.22;;;-1.84;77.23
65131;BME280;51709;54.912;8.316;2022-12-18T15:40:03;102585.44;;;-1.89;77.28
65131;BME280;51709;54.912;8.316;2022-12-18T15:45:24;102571.91;;;-1.91;76.92
65131;BME280;51709;54.912;8.316;2022-12-18T15:50:46;102575.78;;;-1.96;77.00
65131;BME280;51709;54.912;8.316;2022-12-18T15:56:14;102565.47;;;-2.01;76.93
65131;BME280;51709;54.912;8.316;2022-12-18T16:01:55;102571.78;;;-2.08;76.90
65131;BME280;51709;54.912;8.316;2022-12-18T16:07:16;102554.78;;;-2.12;77.12
65131;BME280;51709;54.912;8.316;2022-12-18T16:12:45;102542.78;;;-2.16;76.93
65131;BME280;51709;54.912;8.316;2022-12-18T16:18:06;102534.00;;;-2.23;76.63
65131;BME280;51709;54.912;8.316;2022-12-18T16:23:28;102520.78;;;-2.34;76.81
65131;BME280;51709;54.912;8.316;2022-12-18T16:28:48;102521.22;;;-2.41;76.79
65131;BME280;51709;54.912;8.316;2022-12-18T16:34:20;102511.75;;;-2.45;76.84
65131;BME280;51709;54.912;8.316;2022-12-18T16:39:48;102506.72;;;-2.45;76.59
65131;BME280;51709;54.912;8.316;2022-12-18T16:45:11;102493.38;;;-2.44;76.68
65131;BME280;51709;54.912;8.316;2022-12-18T16:50:32;102485.25;;;-2.40;76.72
65131;BME280;51709;54.912;8.316;2022-12-18T16:55:56;102465.91;;;-2.41;76.45
65131;BME280;51709;54.912;8.316;2022-12-18T17:01:16;102468.69;;;-2.36;76.37
65131;BME280;51709;54.912;8.316;2022-12-18T17:06:42;102448.56;;;-2.36;76.53
65131;BME280;51709;54.912;8.316;2022-12-18T17:12:03;102462.09;;;-2.34;76.29
65131;BME280;51709;54.912;8.316;2022-12-18T17:17:24;102448.66;;;-2.35;76.43
65131;BME280;51709;54.912;8.316;2022-12-18T17:22:44;102430.03;;;-2.23;76.18
65131;BME280;51709;54.912;8.316;2022-12-18T17:28:05;102420.59;;;-2.12;76.04
65131;BME280;51709;54.912;8.316;2022-12-18T17:33:25;102412.78;;;-2.02;75.93
65131;BME280;51709;54.912;8.316;2022-12-18T17:38:54;102389.00;;;-1.92;75.90
65131;BME280;51709;54.912;8.316;2022-12-18T17:44:16;102378.91;;;-1.77;75.66
65131;BME280;51709;54.912;8.316;2022-12-18T17:49:37;102353.13;;;-1.73;75.62
65131;BME280;51709;54.912;8.316;2022-12-18T17:54:58;102336.38;;;-1.73;75.83
65131;BME280;51709;54.912;8.316;2022-12-18T18:00:18;102319.53;;;-1.74;75.87
65131;BME280;51709;54.912;8.316;2022-12-18T18:05:39;102300.34;;;-1.72;75.69
65131;BME280;51709;54.912;8.316;2022-12-18T18:11:11;102284.53;;;-1.69;75.58
65131;BME280;51709;54.912;8.316;2022-12-18T18:16:50;102259.06;;;-1.75;75.66
65131;BME280;51709;54.912;8.316;2022-12-18T18:22:11;102259.59;;;-1.81;75.67
65131;BME280;51709;54.912;8.316;2022-12-18T18:27:32;102233.00;;;-1.76;75.55
65131;BME280;51709;54.912;8.316;2022-12-18T18:32:57;102257.72;;;-1.68;75.15
65131;BME280;51709;54.912;8.316;2022-12-18T18:38:18;102255.84;;;-1.56;74.97
65131;BME280;51709;54.912;8.316;2022-12-18T18:43:39;102252.63;;;-1.53;74.86
65131;BME280;51709;54.912;8.316;2022-12-18T18:49:00;102224.44;;;-1.46;74.35
65131;BME280;51709;54.912;8.316;2022-12-18T18:54:21;102225.78;;;-1.36;74.20
65131;BME280;51709;54.912;8.316;2022-12-18T18:59:41;102218.78;;;-1.26;73.98
65131;BME280;51709;54.912;8.316;2022-12-18T19:05:02;102209.88;;;-1.19;73.81
65131;BME280;51709;54.912;8.316;2022-12-18T19:10:23;102223.53;;;-1.14;73.59
65131;BME280;51709;54.912;8.316;2022-12-18T19:15:44;102199.47;;;-1.09;73.57
65131;BME280;51709;54.912;8.316;2022-12-18T19:21:05;102206.22;;;-1.07;73.24
65131;BME280;51709;54.912;8.316;2022-12-18T19:26:26;102202.09;;;-1.05;73.03
65131;BME280;51709;54.912;8.316;2022-12-18T19:31:47;102205.50;;;-1.05;73.08
65131;BME280;51709;54.912;8.316;2022-12-18T19:37:08;102188.66;;;-1.06;72.79
65131;BME280;51709;54.912;8.316;2022-12-18T19:42:29;102186.75;;;-1.10;72.57
65131;BME280;51709;54.912;8.316;2022-12-18T19:47:54;102182.44;;;-1.13;72.32
65131;BME280;51709;54.912;8.316;2022-12-18T19:53:23;102183.25;;;-1.14;72.16
65131;BME280;51709;54.912;8.316;2022-12-18T19:58:44;102177.13;;;-1.19;71.88
65131;BME280;51709;54.912;8.316;2022-12-18T20:04:05;102178.88;;;-1.18;71.74
65131;BME280;51709;54.912;8.316;2022-12-18T20:09:27;102179.44;;;-1.23;71.78
65131;BME280;51709;54.912;8.316;2022-12-18T20:14:48;102173.56;;;-1.22;71.64
65131;BME280;51709;54.912;8.316;2022-12-18T20:20:08;102175.09;;;-1.26;71.67
65131;BME280;51709;54.912;8.316;2022-12-18T20:25:29;102175.66;;;-1.32;71.51
65131;BME280;51709;54.912;8.316;2022-12-18T20:30:50;102168.03;;;-1.33;71.62
65131;BME280;51709;54.912;8.316;2022-12-18T20:36:16;102160.03;;;-1.43;71.24
65131;BME280;51709;54.912;8.316;2022-12-18T20:41:42;102162.44;;;-1.44;71.34
65131;BME280;51709;54.912;8.316;2022-12-18T20:54:36;102166.53;;;-1.46;71.22
65131;BME280;51709;54.912;8.316;2022-12-18T20:59:56;102159.88;;;-1.46;71.41
65131;BME280;51709;54.912;8.316;2022-12-18T21:05:17;102154.75;;;-1.47;71.40
65131;BME280;51709;54.912;8.316;2022-12-18T21:10:37;102153.31;;;-1.42;71.38
65131;BME280;51709;54.912;8.316;2022-12-18T21:15:58;102153.47;;;-1.39;71.33
65131;BME280;51709;54.912;8.316;2022-12-18T21:21:19;102137.66;;;-1.36;71.17
65131;BME280;51709;54.912;8.316;2022-12-18T21:26:47;102126.06;;;-1.33;71.20
65131;BME280;51709;54.912;8.316;2022-12-18T21:32:08;102124.81;;;-1.25;71.20
65131;BME280;51709;54.912;8.316;2022-12-18T21:37:28;102105.50;;;-1.24;71.41
65131;BME280;51709;54.912;8.316;2022-12-18T21:42:49;102102.97;;;-1.24;71.33
65131;BME280;51709;54.912;8.316;2022-12-18T21:48:29;102096.31;;;-1.23;71.53
65131;BME280;51709;54.912;8.316;2022-12-18T21:53:50;102089.38;;;-1.28;71.25
65131;BME280;51709;54.912;8.316;2022-12-18T22:04:42;102052.47;;;-1.27;71.05
65131;BME280;51709;54.912;8.316;2022-12-18T22:10:03;102052.56;;;-1.26;70.89
65131;BME280;51709;54.912;8.316;2022-12-18T22:15:24;102038.28;;;-1.25;70.87
65131;BME280;51709;54.912;8.316;2022-12-18T22:20:46;102034.13;;;-1.25;70.68
65131;BME280;51709;54.912;8.316;2022-12-18T22:26:07;102007.91;;;-1.28;70.88
65131;BME280;51709;54.912;8.316;2022-12-18T22:31:29;102009.53;;;-1.30;70.66
65131;BME280;51709;54.912;8.316;2022-12-18T22:36:50;101996.69;;;-1.35;70.82
65131;BME280;51709;54.912;8.316;2022-12-18T22:42:10;101992.91;;;-1.45;70.84
65131;BME280;51709;54.912;8.316;2022-12-18T22:47:31;102006.13;;;-1.49;71.00
65131;BME280;51709;54.912;8.316;2022-12-18T22:52:52;101995.91;;;-1.52;71.05
65131;BME280;51709;54.912;8.316;2022-12-18T22:58:13;102000.59;;;-1.60;70.89
65131;BME280;51709;54.912;8.316;2022-12-18T23:03:33;101986.19;;;-1.62;71.21
65131;BME280;51709;54.912;8.316;2022-12-18T23:08:55;101988.69;;;-1.62;71.09
65131;BME280;51709;54.912;8.316;2022-12-18T23:14:16;101990.16;;;-1.67;71.01
65131;BME280;51709;54.912;8.316;2022-12-18T23:19:37;101964.78;;;-1.72;71.30
65131;BME280;51709;54.912;8.316;2022-12-18T23:25:03;101961.31;;;-1.74;71.18
65131;BME280;51709;54.912;8.316;2022-12-18T23:30:24;101948.41;;;-1.80;71.36
65131;BME280;51709;54.912;8.316;2022-12-18T23:35:44;101937.66;;;-1.78;71.45
65131;BME280;51709;54.912;8.316;2022-12-18T23:41:09;101927.72;;;-1.75;71.41
65131;BME280;51709;54.912;8.316;2022-12-18T23:46:32;101912.63;;;-1.75;71.36
65131;BME280;51709;54.912;8.316;2022-12-18T23:51:53;101901.75;;;-1.74;71.39
65131;BME280;51709;54.912;8.316;2022-12-18T23:57:14;101881.72;;;-1.72;71.29
